sensor_id;sensor_type;location;lat;lon;timestamp;temperature;humidity
7796;DHT22;3942;51.518;6.912;2023-04-01T00:02:37;10.80;99.90
7796;DHT22;3942;51.518;6.912;2023-04-01T00:07:40;11.30;99.90
7796;DHT22;3942;51.518;6.912;2023-04-01T00:12:43;10.80;99.90
7796;DHT22;3942;51.518;6.912;2023-04-01T00:17:45;11.30;99.90
7796;DHT22;3942;51.518;6.912;2023-04-01T00:22:48;10.80;99.90
7796;DHT22;3942;51.518;6.912;2023-04-01T00:27:50;11.60;99.90
7796;DHT22;3942;51.518;6.912;2023-04-01T00:32:52;11.00;99.90
7796;DHT22;3942;51.518;6.912;2023-04-01T00:37:56;10.90;99.90
7796;DHT22;3942;51.518;6.912;2023-04-01T00:42:58;10.80;99.90
7796;DHT22;3942;51.518;6.912;2023-04-01T00:48:03;11.30;99.90
7796;DHT22;3942;51.518;6.912;2023-04-01T00:53:08;10.80;99.90
7796;DHT22;3942;51.518;6.912;2023-04-01T00:58:15;11.40;99.90
7796;DHT22;3942;51.518;6.912;2023-04-01T01:03:18;11.30;99.90
7796;DHT22;3942;51.518;6.912;2023-04-01T01:08:30;10.90;99.90
7796;DHT22;3942;51.518;6.912;2023-04-01T01:13:43;10.80;99.90
7796;DHT22;3942;51.518;6.912;2023-04-01T01:18:53;11.30;99.90
7796;DHT22;3942;51.518;6.912;2023-04-01T01:24:17;10.80;99.90
7796;DHT22;3942;51.518;6.912;2023-04-01T01:29:51;10.90;99.90
7796;DHT22;3942;51.518;6.912;2023-04-01T01:35:08;10.80;99.90
7796;DHT22;3942;51.518;6.912;2023-04-01T01:40:13;11.90;99.90
7796;DHT22;3942;51.518;6.912;2023-04-01T01:45:19;11.10;99.90
7796;DHT22;3942;51.518;6.912;2023-04-01T01:50:23;11.00;99.90
7796;DHT22;3942;51.518;6.912;2023-04-01T01:55:28;10.60;99.90
7796;DHT22;3942;51.518;6.912;2023-04-01T02:00:31;10.80;99.90
7796;DHT22;3942;51.518;6.912;2023-04-01T02:05:35;10.70;99.90
7796;DHT22;3942;51.518;6.912;2023-04-01T02:10:40;11.10;99.90
7796;DHT22;3942;51.518;6.912;2023-04-01T02:15:45;11.40;99.90
7796;DHT22;3942;51.518;6.912;2023-04-01T02:20:50;11.10;99.90
7796;DHT22;3942;51.518;6.912;2023-04-01T02:25:53;10.60;99.90
7796;DHT22;3942;51.518;6.912;2023-04-01T02:30:55;11.40;99.90
7796;DHT22;3942;51.518;6.912;2023-04-01T02:36:00;10.60;99.90
7796;DHT22;3942;51.518;6.912;2023-04-01T02:41:02;10.30;99.90
7796;DHT22;3942;51.518;6.912;2023-04-01T02:46:05;10.70;99.90
7796;DHT22;3942;51.518;6.912;2023-04-01T02:51:09;10.50;99.90
7796;DHT22;3942;51.518;6.912;2023-04-01T02:56:11;11.30;99.90
7796;DHT22;3942;51.518;6.912;2023-04-01T03:01:13;10.70;99.90
7796;DHT22;3942;51.518;6.912;2023-04-01T03:06:17;11.00;99.90
7796;DHT22;3942;51.518;6.912;2023-04-01T03:11:19;10.70;99.90
7796;DHT22;3942;51.518;6.912;2023-04-01T03:16:21;11.00;99.90
7796;DHT22;3942;51.518;6.912;2023-04-01T03:21:25;10.70;99.90
7796;DHT22;3942;51.518;6.912;2023-04-01T03:26:27;11.50;99.90
7796;DHT22;3942;51.518;6.912;2023-04-01T03:31:28;10.80;99.90
7796;DHT22;3942;51.518;6.912;2023-04-01T03:36:32;11.40;99.90
7796;DHT22;3942;51.518;6.912;2023-04-01T03:41:36;10.80;99.90
7796;DHT22;3942;51.518;6.912;2023-04-01T03:46:38;11.10;99.90
7796;DHT22;3942;51.518;6.912;2023-04-01T03:51:42;10.80;99.90
7796;DHT22;3942;51.518;6.912;2023-04-01T03:56:44;11.30;99.90
7796;DHT22;3942;51.518;6.912;2023-04-01T04:01:46;10.80;99.90
7796;DHT22;3942;51.518;6.912;2023-04-01T04:06:50;11.10;99.90
7796;DHT22;3942;51.518;6.912;2023-04-01T04:11:52;10.80;99.90
7796;DHT22;3942;51.518;6.912;2023-04-01T04:16:54;11.50;99.90
7796;DHT22;3942;51.518;6.912;2023-04-01T04:21:57;10.90;99.90
7796;DHT22;3942;51.518;6.912;2023-04-01T04:27:01;11.30;99.90
7796;DHT22;3942;51.518;6.912;2023-04-01T04:32:03;10.80;99.90
7796;DHT22;3942;51.518;6.912;2023-04-01T04:37:06;10.80;99.90
7796;DHT22;3942;51.518;6.912;2023-04-01T04:42:08;10.80;99.90
7796;DHT22;3942;51.518;6.912;2023-04-01T04:47:10;11.70;99.90
7796;DHT22;3942;51.518;6.912;2023-04-01T04:52:13;10.80;99.90
7796;DHT22;3942;51.518;6.912;2023-04-01T04:57:15;10.80;99.90
7796;DHT22;3942;51.518;6.912;2023-04-01T05:02:17;10.80;99.90
7796;DHT22;3942;51.518;6.912;2023-04-01T05:07:20;11.80;99.90
7796;DHT22;3942;51.518;6.912;2023-04-01T05:12:22;10.80;99.90
7796;DHT22;3942;51.518;6.912;2023-04-01T05:17:23;11.50;99.90
7796;DHT22;3942;51.518;6.912;2023-04-01T05:22:27;10.80;99.90
7796;DHT22;3942;51.518;6.912;2023-04-01T05:27:28;11.20;99.90
7796;DHT22;3942;51.518;6.912;2023-04-01T05:32:31;10.80;99.90
7796;DHT22;3942;51.518;6.912;2023-04-01T05:37:35;10.80;99.90
7796;DHT22;3942;51.518;6.912;2023-04-01T05:42:37;10.80;99.90
7796;DHT22;3942;51.518;6.912;2023-04-01T05:47:38;10.80;99.90
7796;DHT22;3942;51.518;6.912;2023-04-01T05:52:42;10.90;99.90
7796;DHT22;3942;51.518;6.912;2023-04-01T05:57:45;10.70;99.90
7796;DHT22;3942;51.518;6.912;2023-04-01T06:02:48;11.70;99.90
7796;DHT22;3942;51.518;6.912;2023-04-01T06:07:58;10.90;99.90
7796;DHT22;3942;51.518;6.912;2023-04-01T06:13:06;10.80;99.90
7796;DHT22;3942;51.518;6.912;2023-04-01T06:18:33;11.30;99.90
7796;DHT22;3942;51.518;6.912;2023-04-01T06:23:49;10.80;99.90
7796;DHT22;3942;51.518;6.912;2023-04-01T06:29:23;11.60;99.90
7796;DHT22;3942;51.518;6.912;2023-04-01T06:34:46;10.90;99.90
7796;DHT22;3942;51.518;6.912;2023-04-01T06:40:05;11.50;99.90
7796;DHT22;3942;51.518;6.912;2023-04-01T06:45:20;11.30;99.90
7796;DHT22;3942;51.518;6.912;2023-04-01T06:50:30;11.30;99.90
7796;DHT22;3942;51.518;6.912;2023-04-01T06:55:41;11.70;99.90
7796;DHT22;3942;51.518;6.912;2023-04-01T07:00:49;11.30;99.90
7796;DHT22;3942;51.518;6.912;2023-04-01T07:05:53;11.30;99.90
7796;DHT22;3942;51.518;6.912;2023-04-01T07:11:01;11.10;99.90
7796;DHT22;3942;51.518;6.912;2023-04-01T07:16:11;11.20;99.90
7796;DHT22;3942;51.518;6.912;2023-04-01T07:21:25;11.10;99.90
7796;DHT22;3942;51.518;6.912;2023-04-01T07:26:30;11.10;99.90
7796;DHT22;3942;51.518;6.912;2023-04-01T07:31:45;11.30;99.90
7796;DHT22;3942;51.518;6.912;2023-04-01T07:36:54;11.20;99.90
7796;DHT22;3942;51.518;6.912;2023-04-01T07:42:11;11.20;99.90
7796;DHT22;3942;51.518;6.912;2023-04-01T07:47:32;11.20;99.90
7796;DHT22;3942;51.518;6.912;2023-04-01T07:52:38;11.20;99.90
7796;DHT22;3942;51.518;6.912;2023-04-01T07:57:49;11.30;99.90
7796;DHT22;3942;51.518;6.912;2023-04-01T08:03:08;11.30;99.90
7796;DHT22;3942;51.518;6.912;2023-04-01T08:08:19;11.10;99.90
7796;DHT22;3942;51.518;6.912;2023-04-01T08:13:25;11.20;99.90
7796;DHT22;3942;51.518;6.912;2023-04-01T08:18:37;11.30;99.90
7796;DHT22;3942;51.518;6.912;2023-04-01T08:23:43;11.30;99.90
7796;DHT22;3942;51.518;6.912;2023-04-01T08:28:51;12.00;99.90
7796;DHT22;3942;51.518;6.912;2023-04-01T08:33:55;11.30;99.90
7796;DHT22;3942;51.518;6.912;2023-04-01T08:39:02;11.60;99.90
7796;DHT22;3942;51.518;6.912;2023-04-01T08:44:16;11.20;99.90
7796;DHT22;3942;51.518;6.912;2023-04-01T08:49:33;11.90;99.90
7796;DHT22;3942;51.518;6.912;2023-04-01T09:00:27;11.30;99.90
7796;DHT22;3942;51.518;6.912;2023-04-01T09:05:38;11.30;99.90
7796;DHT22;3942;51.518;6.912;2023-04-01T09:10:57;11.40;99.90
7796;DHT22;3942;51.518;6.912;2023-04-01T09:16:13;11.30;99.90
7796;DHT22;3942;51.518;6.912;2023-04-01T09:21:54;11.40;99.90
7796;DHT22;3942;51.518;6.912;2023-04-01T09:27:04;11.40;99.90
7796;DHT22;3942;51.518;6.912;2023-04-01T09:32:22;11.50;99.90
7796;DHT22;3942;51.518;6.912;2023-04-01T09:37:35;12.30;99.90
7796;DHT22;3942;51.518;6.912;2023-04-01T09:42:45;11.30;99.90
7796;DHT22;3942;51.518;6.912;2023-04-01T09:48:02;12.70;99.90
7796;DHT22;3942;51.518;6.912;2023-04-01T09:53:18;11.30;99.90
7796;DHT22;3942;51.518;6.912;2023-04-01T10:15:33;11.50;99.90
7796;DHT22;3942;51.518;6.912;2023-04-01T10:21:10;11.50;99.90
7796;DHT22;3942;51.518;6.912;2023-04-01T10:26:32;11.50;99.90
7796;DHT22;3942;51.518;6.912;2023-04-01T10:31:55;11.50;99.90
7796;DHT22;3942;51.518;6.912;2023-04-01T10:37:15;12.00;99.90
7796;DHT22;3942;51.518;6.912;2023-04-01T10:48:19;12.00;99.90
7796;DHT22;3942;51.518;6.912;2023-04-01T10:53:37;11.70;99.90
7796;DHT22;3942;51.518;6.912;2023-04-01T10:59:27;12.40;99.90
7796;DHT22;3942;51.518;6.912;2023-04-01T11:10:47;12.20;99.90
7796;DHT22;3942;51.518;6.912;2023-04-01T11:21:59;11.90;99.90
7796;DHT22;3942;51.518;6.912;2023-04-01T11:27:23;11.40;99.90
7796;DHT22;3942;51.518;6.912;2023-04-01T11:32:34;11.50;99.90
7796;DHT22;3942;51.518;6.912;2023-04-01T11:37:46;11.60;99.90
7796;DHT22;3942;51.518;6.912;2023-04-01T11:42:57;11.70;99.90
7796;DHT22;3942;51.518;6.912;2023-04-01T11:53:19;11.90;99.90
7796;DHT22;3942;51.518;6.912;2023-04-01T11:58:56;11.60;99.90
7796;DHT22;3942;51.518;6.912;2023-04-01T12:09:14;11.70;99.90
7796;DHT22;3942;51.518;6.912;2023-04-01T12:14:27;11.70;99.90
7796;DHT22;3942;51.518;6.912;2023-04-01T12:24:46;12.10;99.90
7796;DHT22;3942;51.518;6.912;2023-04-01T12:30:08;11.90;99.90
7796;DHT22;3942;51.518;6.912;2023-04-01T12:35:18;12.00;99.90
7796;DHT22;3942;51.518;6.912;2023-04-01T12:40:46;11.90;99.90
7796;DHT22;3942;51.518;6.912;2023-04-01T12:45:55;11.90;99.90
7796;DHT22;3942;51.518;6.912;2023-04-01T12:51:23;11.90;99.90
7796;DHT22;3942;51.518;6.912;2023-04-01T12:56:41;12.10;99.90
7796;DHT22;3942;51.518;6.912;2023-04-01T13:02:11;12.30;99.90
7796;DHT22;3942;51.518;6.912;2023-04-01T13:12:55;11.70;99.90
7796;DHT22;3942;51.518;6.912;2023-04-01T13:18:06;11.80;99.90
7796;DHT22;3942;51.518;6.912;2023-04-01T13:23:24;11.80;99.90
7796;DHT22;3942;51.518;6.912;2023-04-01T13:28:30;11.80;99.90
7796;DHT22;3942;51.518;6.912;2023-04-01T13:33:40;11.90;99.90
7796;DHT22;3942;51.518;6.912;2023-04-01T13:39:12;11.60;99.90
7796;DHT22;3942;51.518;6.912;2023-04-01T13:44:20;11.90;99.90
7796;DHT22;3942;51.518;6.912;2023-04-01T13:49:45;11.80;99.90
7796;DHT22;3942;51.518;6.912;2023-04-01T13:55:06;11.80;99.90
7796;DHT22;3942;51.518;6.912;2023-04-01T14:00:22;11.40;99.90
7796;DHT22;3942;51.518;6.912;2023-04-01T14:05:42;11.70;99.90
7796;DHT22;3942;51.518;6.912;2023-04-01T14:10:53;11.80;99.90
7796;DHT22;3942;51.518;6.912;2023-04-01T14:21:14;12.10;99.90
7796;DHT22;3942;51.518;6.912;2023-04-01T14:32:04;12.30;99.90
7796;DHT22;3942;51.518;6.912;2023-04-01T14:37:19;12.00;99.90
7796;DHT22;3942;51.518;6.912;2023-04-01T14:42:41;12.00;99.90
7796;DHT22;3942;51.518;6.912;2023-04-01T14:47:50;12.00;99.90
7796;DHT22;3942;51.518;6.912;2023-04-01T14:52:59;12.10;99.90
7796;DHT22;3942;51.518;6.912;2023-04-01T14:58:14;12.00;99.90
7796;DHT22;3942;51.518;6.912;2023-04-01T15:03:20;12.10;99.90
7796;DHT22;3942;51.518;6.912;2023-04-01T15:08:28;12.10;99.90
7796;DHT22;3942;51.518;6.912;2023-04-01T15:13:57;12.10;99.90
7796;DHT22;3942;51.518;6.912;2023-04-01T15:19:12;12.30;99.90
7796;DHT22;3942;51.518;6.912;2023-04-01T15:24:21;12.20;99.90
7796;DHT22;3942;51.518;6.912;2023-04-01T15:29:51;12.10;99.90
7796;DHT22;3942;51.518;6.912;2023-04-01T15:34:58;12.20;99.90
7796;DHT22;3942;51.518;6.912;2023-04-01T15:40:14;12.40;99.90
7796;DHT22;3942;51.518;6.912;2023-04-01T15:45:30;12.10;99.90
7796;DHT22;3942;51.518;6.912;2023-04-01T15:50:50;12.50;99.90
7796;DHT22;3942;51.518;6.912;2023-04-01T15:55:57;12.10;99.90
7796;DHT22;3942;51.518;6.912;2023-04-01T16:01:08;12.00;99.90
7796;DHT22;3942;51.518;6.912;2023-04-01T16:06:39;12.20;99.90
7796;DHT22;3942;51.518;6.912;2023-04-01T16:11:51;12.00;99.90
7796;DHT22;3942;51.518;6.912;2023-04-01T16:17:11;12.10;99.90
7796;DHT22;3942;51.518;6.912;2023-04-01T16:22:18;11.90;99.90
7796;DHT22;3942;51.518;6.912;2023-04-01T16:27:29;11.90;99.90
7796;DHT22;3942;51.518;6.912;2023-04-01T16:32:41;12.10;99.90
7796;DHT22;3942;51.518;6.912;2023-04-01T16:37:48;12.30;99.90
7796;DHT22;3942;51.518;6.912;2023-04-01T16:42:54;12.10;99.90
7796;DHT22;3942;51.518;6.912;2023-04-01T16:48:05;11.80;99.90
7796;DHT22;3942;51.518;6.912;2023-04-01T16:53:10;11.70;99.90
7796;DHT22;3942;51.518;6.912;2023-04-01T16:58:23;11.80;99.90
7796;DHT22;3942;51.518;6.912;2023-04-01T17:03:28;11.80;99.90
7796;DHT22;3942;51.518;6.912;2023-04-01T17:08:48;11.80;99.90
7796;DHT22;3942;51.518;6.912;2023-04-01T17:14:02;11.80;99.90
7796;DHT22;3942;51.518;6.912;2023-04-01T17:19:15;12.00;99.90
7796;DHT22;3942;51.518;6.912;2023-04-01T17:24:31;11.80;99.90
7796;DHT22;3942;51.518;6.912;2023-04-01T17:29:54;11.70;99.90
7796;DHT22;3942;51.518;6.912;2023-04-01T17:35:04;11.80;99.90
7796;DHT22;3942;51.518;6.912;2023-04-01T17:40:26;11.90;99.90
7796;DHT22;3942;51.518;6.912;2023-04-01T17:45:37;11.70;99.90
7796;DHT22;3942;51.518;6.912;2023-04-01T17:50:59;11.90;99.90
7796;DHT22;3942;51.518;6.912;2023-04-01T17:56:14;11.70;99.90
7796;DHT22;3942;51.518;6.912;2023-04-01T18:01:30;12.30;99.90
7796;DHT22;3942;51.518;6.912;2023-04-01T18:06:50;12.10;99.90
7796;DHT22;3942;51.518;6.912;2023-04-01T18:12:02;11.70;99.90
7796;DHT22;3942;51.518;6.912;2023-04-01T18:17:27;12.20;99.90
7796;DHT22;3942;51.518;6.912;2023-04-01T18:22:39;11.80;99.90
7796;DHT22;3942;51.518;6.912;2023-04-01T18:27:45;12.10;99.90
7796;DHT22;3942;51.518;6.912;2023-04-01T18:32:52;12.00;99.90
7796;DHT22;3942;51.518;6.912;2023-04-01T18:43:11;11.90;99.90
7796;DHT22;3942;51.518;6.912;2023-04-01T18:48:37;11.90;99.90
7796;DHT22;3942;51.518;6.912;2023-04-01T18:53:43;12.20;99.90
7796;DHT22;3942;51.518;6.912;2023-04-01T18:58:52;11.80;99.90
7796;DHT22;3942;51.518;6.912;2023-04-01T19:04:03;11.70;99.90
7796;DHT22;3942;51.518;6.912;2023-04-01T19:09:18;11.50;99.90
7796;DHT22;3942;51.518;6.912;2023-04-01T19:14:26;11.40;99.90
7796;DHT22;3942;51.518;6.912;2023-04-01T19:19:43;11.30;99.90
7796;DHT22;3942;51.518;6.912;2023-04-01T19:25:10;11.40;99.90
7796;DHT22;3942;51.518;6.912;2023-04-01T19:30:26;11.60;99.90
7796;DHT22;3942;51.518;6.912;2023-04-01T19:35:37;11.40;99.90
7796;DHT22;3942;51.518;6.912;2023-04-01T19:40:48;11.00;99.90
7796;DHT22;3942;51.518;6.912;2023-04-01T19:51:07;10.90;99.90
7796;DHT22;3942;51.518;6.912;2023-04-01T19:56:12;11.00;99.90
7796;DHT22;3942;51.518;6.912;2023-04-01T20:01:22;10.80;99.90
7796;DHT22;3942;51.518;6.912;2023-04-01T20:06:33;10.80;99.90
7796;DHT22;3942;51.518;6.912;2023-04-01T20:11:48;10.70;99.90
7796;DHT22;3942;51.518;6.912;2023-04-01T20:16:58;10.60;99.90
7796;DHT22;3942;51.518;6.912;2023-04-01T20:22:08;10.40;99.90
7796;DHT22;3942;51.518;6.912;2023-04-01T20:27:18;10.40;99.90
7796;DHT22;3942;51.518;6.912;2023-04-01T20:32:37;10.40;99.90
7796;DHT22;3942;51.518;6.912;2023-04-01T20:37:48;10.40;99.90
7796;DHT22;3942;51.518;6.912;2023-04-01T20:54:11;10.00;99.90
7796;DHT22;3942;51.518;6.912;2023-04-01T20:59:37;9.90;99.90
7796;DHT22;3942;51.518;6.912;2023-04-01T21:05:05;9.90;99.90
7796;DHT22;3942;51.518;6.912;2023-04-01T21:10:27;9.60;99.90
7796;DHT22;3942;51.518;6.912;2023-04-01T21:15:41;9.50;99.90
7796;DHT22;3942;51.518;6.912;2023-04-01T21:20:59;9.70;99.90
7796;DHT22;3942;51.518;6.912;2023-04-01T21:26:19;9.90;99.90
7796;DHT22;3942;51.518;6.912;2023-04-01T21:31:35;9.80;99.90
7796;DHT22;3942;51.518;6.912;2023-04-01T21:36:58;9.30;99.90
7796;DHT22;3942;51.518;6.912;2023-04-01T21:42:18;9.60;99.90
7796;DHT22;3942;51.518;6.912;2023-04-01T21:47:57;9.20;99.90
7796;DHT22;3942;51.518;6.912;2023-04-01T22:04:49;9.50;99.90
7796;DHT22;3942;51.518;6.912;2023-04-01T22:10:00;7.80;99.90
7796;DHT22;3942;51.518;6.912;2023-04-01T22:15:11;9.20;99.90
7796;DHT22;3942;51.518;6.912;2023-04-01T22:20:25;9.00;99.90
7796;DHT22;3942;51.518;6.912;2023-04-01T22:25:33;8.90;99.90
7796;DHT22;3942;51.518;6.912;2023-04-01T22:30:39;8.80;99.90
7796;DHT22;3942;51.518;6.912;2023-04-01T22:35:50;8.90;99.90
7796;DHT22;3942;51.518;6.912;2023-04-01T22:46:14;8.50;99.90
7796;DHT22;3942;51.518;6.912;2023-04-01T22:51:21;8.20;99.90
7796;DHT22;3942;51.518;6.912;2023-04-01T22:56:27;8.50;99.90
7796;DHT22;3942;51.518;6.912;2023-04-01T23:01:34;8.60;99.90
7796;DHT22;3942;51.518;6.912;2023-04-01T23:06:42;9.10;99.90
7796;DHT22;3942;51.518;6.912;2023-04-01T23:11:48;8.50;99.90
7796;DHT22;3942;51.518;6.912;2023-04-01T23:16:57;8.80;99.90
7796;DHT22;3942;51.518;6.912;2023-04-01T23:22:11;8.50;99.90
7796;DHT22;3942;51.518;6.912;2023-04-01T23:27:20;8.70;99.90
7796;DHT22;3942;51.518;6.912;2023-04-01T23:32:23;8.40;99.90
7796;DHT22;3942;51.518;6.912;2023-04-01T23:37:28;8.40;99.90
7796;DHT22;3942;51.518;6.912;2023-04-01T23:42:31;8.60;99.90
7796;DHT22;3942;51.518;6.912;2023-04-01T23:47:36;8.20;99.90
7796;DHT22;3942;51.518;6.912;2023-04-01T23:52:43;8.50;99.90
7796;DHT22;3942;51.518;6.912;2023-04-01T23:58:01;8.10;99.90
